Time;durP1;ratioP1;P1;durP2;ratioP2;P2;SDS_P1;SDS_P2;PMS_P1;PMS_P2;Temp;Humidity;BMP_temperature;BMP_pressure;BME280_temperature;BME280_humidity;BME280_pressure;Samples;Min_cycle;Max_cycle;Signal;HPM_P1;HPM_P2
2021/06/29 00:02:23;;;;;;;1999.90;999.90;;;17.90;99.90;;;;;;5073624;28;20521;-81
2021/06/29 00:04:50;;;;;;;1999.90;999.90;;;18.00;99.90;;;;;;5055399;28;20269;-81
2021/06/29 00:07:16;;;;;;;1999.90;999.90;;;18.00;99.90;;;;;;5073369;28;20255;-81
2021/06/29 00:09:41;;;;;;;1999.90;999.90;;;18.10;99.90;;;;;;5074349;28;20201;-81
2021/06/29 00:12:07;;;;;;;1999.90;999.90;;;18.20;99.90;;;;;;5073903;28;20176;-81
2021/06/29 00:14:33;;;;;;;1999.90;999.90;;;18.20;99.90;;;;;;5055492;28;20244;-81
2021/06/29 00:16:59;;;;;;;1999.90;999.90;;;18.10;99.90;;;;;;5073224;28;20239;-81
2021/06/29 00:19:24;;;;;;;1999.90;999.90;;;18.20;99.90;;;;;;5074296;28;20181;-81
2021/06/29 00:21:50;;;;;;;1999.90;999.90;;;18.00;99.90;;;;;;5055997;28;20188;-81
2021/06/29 00:24:16;;;;;;;1999.90;999.90;;;18.00;99.90;;;;;;5073517;28;20184;-81
2021/06/29 00:26:42;;;;;;;1999.90;999.90;;;18.00;99.90;;;;;;5072752;28;20612;-80
2021/06/29 00:29:08;;;;;;;1999.90;999.90;;;18.00;99.90;;;;;;5073308;28;20204;-81
2021/06/29 00:31:34;;;;;;;1999.90;999.90;;;17.90;99.90;;;;;;5071699;28;20182;-80
2021/06/29 00:34:00;;;;;;;1999.90;999.90;;;17.90;99.90;;;;;;5074121;28;20187;-81
2021/06/29 00:36:26;;;;;;;1999.90;999.90;;;17.70;99.90;;;;;;5055517;28;20621;-81
2021/06/29 00:38:51;;;;;;;1999.90;999.90;;;17.80;99.90;;;;;;5073647;28;20203;-81
2021/06/29 00:41:17;;;;;;;1999.90;999.90;;;18.00;99.90;;;;;;5054795;28;20190;-81
2021/06/29 00:43:50;;;;;;;1999.90;999.90;;;18.10;99.90;;;;;;5073735;28;20252;-81
2021/06/29 00:46:17;;;;;;;1999.90;999.90;;;18.00;99.90;;;;;;5055255;28;20176;-80
2021/06/29 00:48:45;;;;;;;1999.90;999.90;;;18.10;99.90;;;;;;5134156;22;20228;-74
2021/06/29 00:51:15;;;;;;;1999.90;999.90;;;18.10;99.90;;;;;;5111647;28;20543;-75
2021/06/29 00:53:42;;;;;;;1999.90;999.90;;;18.10;99.90;;;;;;5093595;28;20193;-75
2021/06/29 00:56:14;;;;;;;1999.90;999.90;;;18.00;99.90;;;;;;5095122;28;20207;-75
2021/06/29 00:58:44;;;;;;;1999.90;999.90;;;17.80;99.90;;;;;;5102032;28;20207;-75
2021/06/29 01:01:10;;;;;;;1999.90;999.90;;;17.90;99.90;;;;;;5091651;28;20172;-75
2021/06/29 01:03:43;;;;;;;1999.90;999.90;;;18.00;99.90;;;;;;5074900;28;20174;-75
2021/06/29 01:06:11;;;;;;;1999.90;999.90;;;18.00;99.90;;;;;;5093165;28;20169;-75
2021/06/29 01:08:37;;;;;;;1999.90;999.90;;;17.80;99.90;;;;;;5092901;28;20274;-75
2021/06/29 01:11:03;;;;;;;1999.90;999.90;;;17.90;99.90;;;;;;5093090;28;20207;-75
2021/06/29 01:13:38;;;;;;;1999.90;999.90;;;18.00;99.90;;;;;;5092909;28;20179;-75
2021/06/29 01:16:05;;;;;;;1999.90;999.90;;;18.00;99.90;;;;;;5092895;28;20183;-75
2021/06/29 01:18:32;;;;;;;1999.90;999.90;;;18.00;99.90;;;;;;5092452;28;20305;-75
2021/06/29 01:20:58;;;;;;;1999.90;999.90;;;18.00;99.90;;;;;;5092870;28;20183;-75
2021/06/29 01:23:26;;;;;;;1999.90;999.90;;;18.00;99.90;;;;;;5092832;28;20318;-75
2021/06/29 01:26:23;;;;;;;1999.90;999.90;;;18.00;99.90;;;;;;5078365;28;20168;-75
2021/06/29 01:28:59;;;;;;;1999.90;999.90;;;18.10;99.90;;;;;;5096930;28;20286;-75
2021/06/29 01:31:25;;;;;;;1999.90;999.90;;;18.00;99.90;;;;;;5096833;28;20164;-75
2021/06/29 01:33:52;;;;;;;1999.90;999.90;;;17.90;99.90;;;;;;5096773;28;20173;-75
2021/06/29 01:36:22;;;;;;;1999.90;999.90;;;18.00;99.90;;;;;;5096693;28;20167;-75
2021/06/29 01:38:49;;;;;;;1999.90;999.90;;;18.10;99.90;;;;;;5096808;28;20253;-75
2021/06/29 01:41:18;;;;;;;1999.90;999.90;;;18.10;99.90;;;;;;5096592;28;20175;-75
2021/06/29 01:43:51;;;;;;;1999.90;999.90;;;18.10;99.90;;;;;;5096565;28;20185;-75
2021/06/29 01:46:17;;;;;;;1999.90;999.90;;;18.10;99.90;;;;;;5096758;28;20533;-75
2021/06/29 01:48:47;;;;;;;1999.90;999.90;;;18.10;99.90;;;;;;5095481;28;20227;-75
2021/06/29 01:51:13;;;;;;;1999.90;999.90;;;18.10;99.90;;;;;;5075748;28;20527;-75
2021/06/29 01:53:39;;;;;;;1999.90;999.90;;;18.00;99.90;;;;;;5094434;28;20221;-75
2021/06/29 01:56:07;;;;;;;1999.90;999.90;;;18.00;99.90;;;;;;5094266;28;20251;-75
2021/06/29 01:58:34;;;;;;;1999.90;999.90;;;17.90;99.90;;;;;;5096043;28;20666;-75
2021/06/29 02:00:59;;;;;;;1999.90;999.90;;;18.00;99.90;;;;;;5096125;28;20183;-75
2021/06/29 02:03:26;;;;;;;1999.90;999.90;;;18.00;99.90;;;;;;5078668;28;20176;-75
2021/06/29 02:05:52;;;;;;;1999.90;999.90;;;17.90;99.90;;;;;;5095370;28;20254;-75
2021/06/29 02:08:18;;;;;;;1999.90;999.90;;;17.90;99.90;;;;;;5095910;28;20357;-75
2021/06/29 02:10:44;;;;;;;1999.90;999.90;;;17.90;99.90;;;;;;5095986;28;20192;-75
2021/06/29 02:13:10;;;;;;;1999.90;999.90;;;17.90;99.90;;;;;;5095977;28;20229;-75
2021/06/29 02:15:36;;;;;;;1999.90;999.90;;;17.90;99.90;;;;;;5078269;28;20203;-75
2021/06/29 02:18:03;;;;;;;1999.90;999.90;;;17.90;99.90;;;;;;5077680;28;20193;-75
2021/06/29 02:20:28;;;;;;;1999.90;999.90;;;17.90;99.90;;;;;;5077691;28;20176;-75
2021/06/29 02:22:54;;;;;;;1999.90;999.90;;;18.00;99.90;;;;;;5077583;28;20643;-75
2021/06/29 02:25:20;;;;;;;1999.90;999.90;;;18.00;99.90;;;;;;5092952;28;20609;-74
2021/06/29 02:27:46;;;;;;;1999.90;999.90;;;18.00;99.90;;;;;;5081577;28;20199;-75
2021/06/29 02:30:13;;;;;;;1999.90;999.90;;;18.00;99.90;;;;;;5086084;28;20226;-74
2021/06/29 02:32:38;;;;;;;1999.90;999.90;;;17.90;99.90;;;;;;5074518;28;20238;-75
2021/06/29 02:35:05;;;;;;;1999.90;999.90;;;17.90;99.90;;;;;;5092439;28;20200;-75
2021/06/29 02:37:31;;;;;;;1999.90;999.90;;;17.90;99.90;;;;;;5074918;28;20639;-75
2021/06/29 02:39:56;;;;;;;1999.90;999.90;;;17.90;99.90;;;;;;5090814;28;20249;-75
2021/06/29 02:42:22;;;;;;;1999.90;999.90;;;17.90;99.90;;;;;;5074952;28;20206;-75
2021/06/29 02:44:48;;;;;;;1999.90;999.90;;;17.80;99.90;;;;;;5076356;28;20208;-75
2021/06/29 02:47:15;;;;;;;1999.90;999.90;;;17.70;99.90;;;;;;5095215;28;20226;-75
2021/06/29 02:49:41;;;;;;;1999.90;999.90;;;17.70;99.90;;;;;;5093388;28;20204;-75
2021/06/29 02:52:07;;;;;;;1999.90;999.90;;;17.80;99.90;;;;;;5076857;28;20229;-75
2021/06/29 02:54:33;;;;;;;1999.90;999.90;;;17.70;99.90;;;;;;5094925;28;20168;-75
2021/06/29 02:56:59;;;;;;;1999.90;999.90;;;17.70;99.90;;;;;;5092103;28;20677;-74
2021/06/29 02:59:25;;;;;;;1999.90;999.90;;;17.70;99.90;;;;;;5078554;28;20228;-74
2021/06/29 03:01:51;;;;;;;1999.90;999.90;;;17.60;99.90;;;;;;5080939;28;20182;-77
2021/06/29 03:04:16;;;;;;;1999.90;999.90;;;17.60;99.90;;;;;;5076693;28;20607;-75
2021/06/29 03:06:42;;;;;;;1999.90;999.90;;;17.70;99.90;;;;;;5069820;28;20176;-77
2021/06/29 03:09:09;;;;;;;1999.90;999.90;;;17.60;99.90;;;;;;5076875;28;20211;-77
2021/06/29 03:11:35;;;;;;;1999.90;999.90;;;17.60;99.90;;;;;;5074946;28;20185;-77
2021/06/29 03:14:02;;;;;;;1999.90;999.90;;;17.60;99.90;;;;;;5079972;28;20171;-76
2021/06/29 03:16:28;;;;;;;1999.90;999.90;;;17.60;99.90;;;;;;5076789;28;20204;-77
2021/06/29 03:18:53;;;;;;;1999.90;999.90;;;17.50;99.90;;;;;;5071799;28;20230;-77
2021/06/29 03:21:19;;;;;;;1999.90;999.90;;;17.60;99.90;;;;;;5074453;28;20176;-77
2021/06/29 03:23:45;;;;;;;1999.90;999.90;;;17.70;99.90;;;;;;5079068;28;20179;-77
2021/06/29 03:26:11;;;;;;;1999.90;999.90;;;17.70;99.90;;;;;;5071651;28;20195;-77
2021/06/29 03:28:36;;;;;;;1999.90;999.90;;;17.60;99.90;;;;;;5086004;28;20212;-77
2021/06/29 03:31:02;;;;;;;1999.90;999.90;;;17.60;99.90;;;;;;5078224;28;20206;-77
2021/06/29 03:33:28;;;;;;;1999.90;999.90;;;17.60;99.90;;;;;;5092327;28;20221;-77
2021/06/29 03:35:53;;;;;;;1999.90;999.90;;;17.60;99.90;;;;;;5073986;28;20202;-77
2021/06/29 03:38:19;;;;;;;1999.90;999.90;;;17.50;99.90;;;;;;5092149;28;20196;-77
2021/06/29 03:40:45;;;;;;;1999.90;999.90;;;17.40;99.90;;;;;;5092021;28;20179;-77
2021/06/29 03:43:10;;;;;;;1999.90;999.90;;;17.30;99.90;;;;;;5092126;28;20254;-77
2021/06/29 03:45:36;;;;;;;1999.90;999.90;;;17.10;99.90;;;;;;5091881;28;20182;-77
2021/06/29 03:48:03;;;;;;;1999.90;999.90;;;17.00;99.90;;;;;;5091102;28;20341;-77
2021/06/29 03:50:28;;;;;;;1999.90;999.90;;;17.00;99.90;;;;;;5091480;28;20205;-77
2021/06/29 03:52:54;;;;;;;1999.90;999.90;;;17.00;99.90;;;;;;5091813;28;20531;-77
2021/06/29 03:55:20;;;;;;;1999.90;999.90;;;16.90;99.90;;;;;;5073274;28;20185;-77
2021/06/29 03:57:46;;;;;;;1999.90;999.90;;;16.90;99.90;;;;;;5092003;28;20197;-77
2021/06/29 04:00:13;;;;;;;1999.90;999.90;;;17.00;99.90;;;;;;5092542;28;20183;-77
2021/06/29 04:02:39;;;;;;;1999.90;999.90;;;17.00;99.90;;;;;;5097655;28;20178;-78
2021/06/29 04:05:05;;;;;;;1999.90;999.90;;;16.90;99.90;;;;;;5075258;28;20195;-77
2021/06/29 04:07:31;;;;;;;1999.90;999.90;;;16.90;99.90;;;;;;5091177;28;20170;-77
2021/06/29 04:09:57;;;;;;;1999.90;999.90;;;16.80;99.90;;;;;;5087897;28;20226;-77
2021/06/29 04:12:22;;;;;;;1999.90;999.90;;;16.80;99.90;;;;;;5091488;28;20710;-77
2021/06/29 04:14:48;;;;;;;1999.90;999.90;;;16.80;99.90;;;;;;5073952;28;20172;-77
2021/06/29 04:17:14;;;;;;;1999.90;999.90;;;16.80;99.90;;;;;;5093081;28;20160;-77
2021/06/29 04:19:41;;;;;;;1999.90;999.90;;;16.80;99.90;;;;;;5093574;28;20192;-77
2021/06/29 04:22:09;;;;;;;1999.90;999.90;;;16.90;99.90;;;;;;5093570;28;20257;-77
2021/06/29 04:24:35;;;;;;;1999.90;999.90;;;16.80;99.90;;;;;;5073274;28;20241;-77
2021/06/29 04:27:02;;;;;;;1999.90;999.90;;;16.80;99.90;;;;;;5074695;28;20266;-77
2021/06/29 04:29:27;;;;;;;1999.90;999.90;;;16.80;99.90;;;;;;5092952;28;20207;-77
2021/06/29 04:31:53;;;;;;;1999.90;999.90;;;16.80;99.90;;;;;;5090786;28;20177;-77
2021/06/29 04:34:19;;;;;;;1999.90;999.90;;;16.90;99.90;;;;;;5090450;28;20194;-77
2021/06/29 04:36:45;;;;;;;1999.90;999.90;;;16.90;99.90;;;;;;5090489;28;20170;-77
2021/06/29 04:39:11;;;;;;;1999.90;999.90;;;16.90;99.90;;;;;;5092918;28;20265;-77
2021/06/29 04:41:37;;;;;;;1999.90;999.90;;;17.00;99.90;;;;;;5093236;28;20642;-77
2021/06/29 04:44:03;;;;;;;1999.90;999.90;;;17.00;99.90;;;;;;5093291;28;20254;-76
2021/06/29 04:46:30;;;;;;;1999.90;999.90;;;17.00;99.90;;;;;;5093650;28;20210;-76
2021/06/29 04:48:55;;;;;;;1999.90;999.90;;;17.00;99.90;;;;;;5092963;28;20222;-76
2021/06/29 04:51:21;;;;;;;1999.90;999.90;;;17.10;99.90;;;;;;5092408;28;20180;-76
2021/06/29 04:53:47;;;;;;;1999.90;999.90;;;17.20;99.90;;;;;;5095072;28;20299;-77
2021/06/29 04:56:18;;;;;;;1999.90;999.90;;;17.20;99.90;;;;;;5102360;28;20174;-78
2021/06/29 04:58:57;;;;;;;1999.90;999.90;;;17.30;99.90;;;;;;5085481;28;20221;-78
2021/06/29 05:01:23;;;;;;;1999.90;999.90;;;17.30;99.90;;;;;;5104797;28;20669;-77
2021/06/29 05:03:50;;;;;;;1999.90;999.90;;;17.40;99.90;;;;;;5103226;28;20241;-78
2021/06/29 05:06:16;;;;;;;1999.90;999.90;;;17.30;99.90;;;;;;5074214;28;20175;-78
2021/06/29 05:08:45;;;;;;;1999.90;999.90;;;17.30;99.90;;;;;;5065763;28;20282;-78
2021/06/29 05:11:10;;;;;;;1999.90;999.90;;;17.30;99.90;;;;;;5084426;28;20238;-78
2021/06/29 05:13:36;;;;;;;1999.90;999.90;;;17.20;99.90;;;;;;5083079;28;20639;-78
2021/06/29 05:16:03;;;;;;;1999.90;999.90;;;17.20;99.90;;;;;;5065205;28;20282;-78
2021/06/29 05:18:28;;;;;;;1999.90;999.90;;;17.30;99.90;;;;;;5083506;28;20195;-79
2021/06/29 05:20:54;;;;;;;1999.90;999.90;;;17.30;99.90;;;;;;5066775;28;20176;-78
2021/06/29 05:23:21;;;;;;;1999.90;999.90;;;17.30;99.90;;;;;;5097931;28;20179;-78
2021/06/29 05:25:47;;;;;;;1999.90;999.90;;;17.30;99.90;;;;;;5084949;28;20179;-78
2021/06/29 05:28:13;;;;;;;1999.90;999.90;;;17.30;99.90;;;;;;5094719;28;20219;-78
2021/06/29 05:30:38;;;;;;;1999.90;999.90;;;17.30;99.90;;;;;;5103402;28;20213;-78
2021/06/29 05:33:04;;;;;;;1999.90;999.90;;;17.30;99.90;;;;;;5086384;28;20171;-78
2021/06/29 05:35:30;;;;;;;1999.90;999.90;;;17.30;99.90;;;;;;5103512;28;20677;-78
2021/06/29 05:37:56;;;;;;;1999.90;999.90;;;17.30;99.90;;;;;;5096294;28;20197;-78
2021/06/29 05:40:21;;;;;;;1999.90;999.90;;;17.30;99.90;;;;;;5090008;28;20176;-78
2021/06/29 05:42:47;;;;;;;1999.90;999.90;;;17.30;99.90;;;;;;5097745;28;20168;-78
2021/06/29 05:45:14;;;;;;;1999.90;999.90;;;17.30;99.90;;;;;;5064900;28;20360;-78
2021/06/29 05:47:41;;;;;;;1999.90;999.90;;;17.40;99.90;;;;;;5067279;28;20303;-78
2021/06/29 05:50:11;;;;;;;1999.90;999.90;;;17.40;99.90;;;;;;5103501;28;20209;-78
2021/06/29 05:52:37;;;;;;;1999.90;999.90;;;17.40;99.90;;;;;;5084993;28;20205;-78
2021/06/29 05:55:04;;;;;;;1999.90;999.90;;;17.40;99.90;;;;;;5097792;28;20176;-78
2021/06/29 05:57:30;;;;;;;1999.90;999.90;;;17.50;99.90;;;;;;5095483;28;20183;-78
2021/06/29 05:59:56;;;;;;;1999.90;999.90;;;17.50;99.90;;;;;;5084126;28;20225;-79
2021/06/29 06:02:22;;;;;;;1999.90;999.90;;;17.60;99.90;;;;;;5102376;28;20172;-78
2021/06/29 06:04:47;;;;;;;1999.90;999.90;;;17.60;99.90;;;;;;5082982;28;20171;-78
2021/06/29 06:07:13;;;;;;;1999.90;999.90;;;17.60;99.90;;;;;;5084223;28;20280;-77
2021/06/29 06:09:39;;;;;;;1999.90;999.90;;;17.60;99.90;;;;;;5098183;28;20268;-79
2021/06/29 06:12:05;;;;;;;1999.90;999.90;;;17.60;99.90;;;;;;5085409;28;20191;-78
2021/06/29 06:14:31;;;;;;;1999.90;999.90;;;17.60;99.90;;;;;;5087213;28;20165;-78
2021/06/29 06:16:56;;;;;;;1999.90;999.90;;;17.70;99.90;;;;;;5105615;28;20197;-78
2021/06/29 06:19:22;;;;;;;1999.90;999.90;;;17.70;99.90;;;;;;5104841;28;20285;-78
2021/06/29 06:21:48;;;;;;;1999.90;999.90;;;17.70;99.90;;;;;;5106154;28;20175;-78
2021/06/29 06:24:14;;;;;;;1999.90;999.90;;;17.70;99.90;;;;;;5105458;28;20650;-78
2021/06/29 06:26:40;;;;;;;1999.90;999.90;;;17.70;99.90;;;;;;5106046;28;20168;-78
2021/06/29 06:29:05;;;;;;;1999.90;999.90;;;17.70;99.90;;;;;;5086790;28;20547;-78
2021/06/29 06:31:31;;;;;;;1999.90;999.90;;;17.70;99.90;;;;;;5087325;28;20178;-78
2021/06/29 06:33:57;;;;;;;1999.90;999.90;;;17.80;99.90;;;;;;5106135;28;20646;-78
2021/06/29 06:36:23;;;;;;;1999.90;999.90;;;17.80;99.90;;;;;;5107357;28;20172;-78
2021/06/29 06:38:48;;;;;;;1999.90;999.90;;;17.80;99.90;;;;;;5105884;28;20190;-78
2021/06/29 06:41:14;;;;;;;1999.90;999.90;;;17.90;99.90;;;;;;5106424;28;20581;-78
2021/06/29 06:43:44;;;;;;;1999.90;999.90;;;17.90;99.90;;;;;;5092482;28;20171;-77
2021/06/29 06:46:10;;;;;;;1999.90;999.90;;;18.10;99.90;;;;;;5088410;28;20184;-78
2021/06/29 06:48:40;;;;;;;1999.90;999.90;;;18.10;99.90;;;;;;5116502;22;20227;-83
2021/06/29 06:51:05;;;;;;;1999.90;999.90;;;18.20;99.90;;;;;;5103763;28;20199;-83
2021/06/29 06:53:32;;;;;;;1999.90;999.90;;;18.30;99.90;;;;;;5122807;28;20656;-83
2021/06/29 06:55:58;;;;;;;1999.90;999.90;;;18.40;99.90;;;;;;5104043;28;20172;-83
2021/06/29 06:58:25;;;;;;;1999.90;999.90;;;18.40;99.90;;;;;;5119064;28;20188;-83
2021/06/29 07:00:51;;;;;;;1999.90;999.90;;;18.50;99.90;;;;;;5101864;28;20164;-83
2021/06/29 07:03:17;;;;;;;1999.90;999.90;;;18.60;99.90;;;;;;5083335;28;20172;-83
2021/06/29 07:05:43;;;;;;;1999.90;999.90;;;18.80;99.90;;;;;;5101321;28;20194;-83
2021/06/29 07:08:08;;;;;;;1999.90;999.90;;;18.80;99.90;;;;;;5100987;28;20172;-83
2021/06/29 07:10:34;;;;;;;1999.90;999.90;;;18.80;99.90;;;;;;5087239;28;20200;-83
2021/06/29 07:13:00;;;;;;;1999.90;999.90;;;18.90;99.90;;;;;;5097190;28;20255;-83
2021/06/29 07:15:28;;;;;;;1999.90;999.90;;;19.00;99.90;;;;;;5076901;28;20169;-83
2021/06/29 07:17:54;;;;;;;1999.90;999.90;;;19.10;99.90;;;;;;5101440;28;20160;-82
2021/06/29 07:20:20;;;;;;;1999.90;999.90;;;19.10;99.90;;;;;;5082942;28;20199;-83
2021/06/29 07:22:45;;;;;;;1999.90;999.90;;;19.10;99.90;;;;;;5099210;28;20264;-83
2021/06/29 07:25:11;;;;;;;1999.90;999.90;;;19.10;99.90;;;;;;5100333;28;20225;-83
2021/06/29 07:27:37;;;;;;;1999.90;999.90;;;19.10;99.90;;;;;;5099640;28;20521;-83
2021/06/29 07:30:08;;;;;;;1999.90;999.90;;;19.10;99.90;;;;;;5099730;28;20271;-83
2021/06/29 07:32:34;;;;;;;1999.90;999.90;;;19.00;99.90;;;;;;5099957;28;20180;-83
2021/06/29 07:35:00;;;;;;;1999.90;999.90;;;19.00;99.90;;;;;;5100563;28;20172;-83
2021/06/29 07:37:26;;;;;;;1999.90;999.90;;;19.10;99.90;;;;;;5099987;28;20173;-83
2021/06/29 07:39:51;;;;;;;1999.90;999.90;;;19.20;99.90;;;;;;5099797;28;20298;-82
2021/06/29 07:42:17;;;;;;;1999.90;999.90;;;19.20;99.90;;;;;;5099084;28;20175;-82
2021/06/29 07:44:43;;;;;;;1999.90;999.90;;;19.30;99.90;;;;;;5080450;28;20207;-83
2021/06/29 07:47:09;;;;;;;1999.90;999.90;;;19.40;99.90;;;;;;5099835;28;20256;-82
2021/06/29 07:49:35;;;;;;;1999.90;999.90;;;19.40;99.90;;;;;;5098985;28;20215;-83
2021/06/29 07:52:01;;;;;;;1999.90;999.90;;;19.50;99.90;;;;;;5096815;28;20172;-82
2021/06/29 07:54:26;;;;;;;1999.90;999.90;;;19.60;99.90;;;;;;5078731;28;20168;-83
2021/06/29 07:56:52;;;;;;;1999.90;999.90;;;19.60;99.90;;;;;;5078367;28;20194;-83
2021/06/29 07:59:18;;;;;;;1999.90;999.90;;;19.70;99.90;;;;;;5071720;28;20269;-83
2021/06/29 08:01:44;;;;;;;1999.90;999.90;;;19.80;99.90;;;;;;5075248;28;20172;-82
2021/06/29 08:04:09;;;;;;;1999.90;999.90;;;19.70;99.90;;;;;;5092784;28;20184;-82
2021/06/29 08:06:35;;;;;;;1999.90;999.90;;;19.70;99.90;;;;;;5096162;28;20180;-83
2021/06/29 08:09:01;;;;;;;1999.90;999.90;;;19.70;99.90;;;;;;5066492;28;20193;-83
2021/06/29 08:11:26;;;;;;;1999.90;999.90;;;19.70;99.90;;;;;;5076853;28;20172;-83
2021/06/29 08:13:52;;;;;;;1999.90;999.90;;;19.80;99.90;;;;;;5096405;28;20164;-83
2021/06/29 08:16:18;;;;;;;1999.90;999.90;;;19.90;99.90;;;;;;5076015;28;20172;-83
2021/06/29 08:18:43;;;;;;;1999.90;999.90;;;20.00;99.90;;;;;;5079910;28;20228;-82
2021/06/29 08:21:09;;;;;;;1999.90;999.90;;;20.10;99.90;;;;;;5083930;28;20704;-83
2021/06/29 08:23:35;;;;;;;1999.90;999.90;;;20.10;99.90;;;;;;5096021;28;20208;-83
2021/06/29 08:26:02;;;;;;;1999.90;999.90;;;20.10;99.90;;;;;;5096268;28;20184;-83
2021/06/29 08:28:28;;;;;;;1999.90;999.90;;;20.20;99.90;;;;;;5078115;28;20200;-82
2021/06/29 08:30:54;;;;;;;1999.90;999.90;;;20.20;99.90;;;;;;5096065;28;20204;-83
2021/06/29 08:33:21;;;;;;;1999.90;999.90;;;20.30;99.90;;;;;;5095597;28;20227;-83
2021/06/29 08:35:49;;;;;;;1999.90;999.90;;;20.40;99.90;;;;;;5096078;28;20177;-83
2021/06/29 08:38:15;;;;;;;1999.90;999.90;;;20.50;99.90;;;;;;5095407;28;20172;-83
2021/06/29 08:40:44;;;;;;;1999.90;999.90;;;20.60;99.90;;;;;;5078108;28;20180;-83
2021/06/29 08:43:11;;;;;;;1999.90;999.90;;;20.60;99.90;;;;;;5077730;28;20176;-83
2021/06/29 08:45:38;;;;;;;1999.90;999.90;;;20.60;99.90;;;;;;5095918;28;20192;-83
2021/06/29 08:48:04;;;;;;;1999.90;999.90;;;20.60;99.90;;;;;;5095582;28;20177;-83
2021/06/29 08:50:31;;;;;;;1999.90;999.90;;;20.60;99.90;;;;;;5099959;28;20209;-83
2021/06/29 08:53:05;;;;;;;1999.90;999.90;;;20.70;99.90;;;;;;5070249;28;20180;-83
2021/06/29 08:55:36;;;;;;;1999.90;999.90;;;20.90;99.90;;;;;;5078122;28;20175;-82
2021/06/29 08:58:02;;;;;;;1999.90;999.90;;;21.00;99.90;;;;;;5095475;28;20540;-82
2021/06/29 09:00:28;;;;;;;1999.90;999.90;;;21.10;99.90;;;;;;5095957;28;20185;-82
2021/06/29 09:02:54;;;;;;;1999.90;999.90;;;21.10;99.90;;;;;;5095403;28;20211;-81
2021/06/29 09:05:25;;;;;;;1999.90;999.90;;;21.20;99.90;;;;;;5078193;28;20534;-82
2021/06/29 09:08:12;;;;;;;1999.90;999.90;;;21.30;99.90;;;;;;5095694;28;20172;-83
2021/06/29 09:10:40;;;;;;;1999.90;999.90;;;21.40;99.90;;;;;;5077660;28;20187;-83
2021/06/29 09:13:08;;;;;;;1999.90;999.90;;;21.90;99.90;;;;;;5095636;28;20192;-82
2021/06/29 09:15:40;;;;;;;1999.90;999.90;;;21.70;99.90;;;;;;5095773;28;20186;-82
2021/06/29 09:18:05;;;;;;;1999.90;999.90;;;21.70;99.90;;;;;;5095088;28;20184;-82
2021/06/29 09:20:34;;;;;;;1999.90;999.90;;;21.70;99.90;;;;;;5077288;28;20184;-82
2021/06/29 09:23:22;;;;;;;1999.90;999.90;;;21.90;99.90;;;;;;5095799;28;20187;-82
2021/06/29 09:26:03;;;;;;;1999.90;999.90;;;22.00;99.90;;;;;;5095865;28;20541;-83
2021/06/29 09:28:41;;;;;;;1999.90;999.90;;;22.10;99.90;;;;;;5100433;28;20201;-82
2021/06/29 09:31:13;;;;;;;1999.90;999.90;;;22.20;99.90;;;;;;5079549;28;20204;-82
2021/06/29 09:33:46;;;;;;;1999.90;999.90;;;22.30;99.90;;;;;;5080974;28;20177;-83
2021/06/29 09:36:17;;;;;;;1999.90;999.90;;;22.30;99.90;;;;;;5080367;28;20267;-83
2021/06/29 09:38:45;;;;;;;1999.90;999.90;;;22.40;99.90;;;;;;5098059;28;20204;-82
2021/06/29 09:41:15;;;;;;;1999.90;999.90;;;22.40;99.90;;;;;;5100112;28;20576;-83
2021/06/29 09:43:43;;;;;;;1999.90;999.90;;;22.40;99.90;;;;;;5097893;28;20215;-82
2021/06/29 09:46:14;;;;;;;1999.90;999.90;;;22.50;99.90;;;;;;5100992;28;20188;-82
2021/06/29 09:48:44;;;;;;;1999.90;999.90;;;22.50;99.90;;;;;;5102780;28;20251;-82
2021/06/29 09:51:18;;;;;;;1999.90;999.90;;;22.60;99.90;;;;;;5101777;28;20243;-82
2021/06/29 09:53:45;;;;;;;1999.90;999.90;;;22.70;99.90;;;;;;5083958;28;20247;-82
2021/06/29 09:56:19;;;;;;;1999.90;999.90;;;22.80;99.90;;;;;;5102257;28;20169;-83
2021/06/29 09:58:50;;;;;;;1999.90;999.90;;;22.90;99.90;;;;;;5093154;28;20207;-82
2021/06/29 10:01:18;;;;;;;1999.90;999.90;;;22.90;99.90;;;;;;5101925;28;20196;-82
2021/06/29 10:03:46;;;;;;;1999.90;999.90;;;23.00;99.90;;;;;;5102591;28;20654;-82
2021/06/29 10:06:17;;;;;;;1999.90;999.90;;;23.10;99.90;;;;;;5066392;28;20257;-82
2021/06/29 10:08:45;;;;;;;1999.90;999.90;;;23.20;99.90;;;;;;5094971;28;20197;-83
2021/06/29 10:11:18;;;;;;;1999.90;999.90;;;23.20;99.90;;;;;;5094663;28;20663;-82
2021/06/29 10:13:49;;;;;;;1999.90;999.90;;;23.30;99.90;;;;;;5101579;28;20548;-83
2021/06/29 10:16:18;;;;;;;1999.90;999.90;;;23.40;99.90;;;;;;5098229;28;20643;-82
2021/06/29 10:18:50;;;;;;;1999.90;999.90;;;23.50;99.90;;;;;;5093978;28;20199;-83
2021/06/29 10:21:19;;;;;;;1999.90;999.90;;;23.50;99.90;;;;;;5101036;28;20187;-83
2021/06/29 10:23:46;;;;;;;1999.90;999.90;;;23.50;99.90;;;;;;5101165;28;20510;-82
2021/06/29 10:26:13;;;;;;;1999.90;999.90;;;23.50;99.90;;;;;;5100822;28;20180;-83
2021/06/29 10:28:40;;;;;;;1999.90;999.90;;;23.60;99.90;;;;;;5085691;28;20200;-82
2021/06/29 10:31:06;;;;;;;1999.90;999.90;;;23.50;99.90;;;;;;5101164;28;20344;-83
2021/06/29 10:33:33;;;;;;;1999.90;999.90;;;23.50;99.90;;;;;;5099918;28;20189;-82
2021/06/29 10:36:00;;;;;;;1999.90;999.90;;;23.50;99.90;;;;;;5100554;28;20172;-82
2021/06/29 10:38:27;;;;;;;1999.90;999.90;;;23.50;99.90;;;;;;5100108;28;20219;-82
2021/06/29 10:40:55;;;;;;;1999.90;999.90;;;23.40;99.90;;;;;;5100300;28;20255;-83
2021/06/29 10:43:21;;;;;;;1999.90;999.90;;;23.40;99.90;;;;;;5100836;28;20179;-82
2021/06/29 10:45:48;;;;;;;1999.90;999.90;;;23.50;99.90;;;;;;5082308;28;20215;-82
2021/06/29 10:48:21;;;;;;;1999.90;999.90;;;23.60;99.90;;;;;;5100392;28;20177;-82
2021/06/29 10:50:48;;;;;;;1999.90;999.90;;;23.60;99.90;;;;;;5082104;28;20547;-82
2021/06/29 10:53:37;;;;;;;1999.90;999.90;;;23.60;99.90;;;;;;5082597;28;20703;-82
2021/06/29 10:56:09;;;;;;;1999.90;999.90;;;23.50;99.90;;;;;;5082415;28;20173;-82
2021/06/29 10:58:49;;;;;;;1999.90;999.90;;;23.50;99.90;;;;;;5084138;28;20196;-82
2021/06/29 11:01:23;;;;;;;1999.90;999.90;;;23.50;99.90;;;;;;5098288;28;20172;-82
2021/06/29 11:03:50;;;;;;;1999.90;999.90;;;23.40;99.90;;;;;;5098054;28;20229;-82
2021/06/29 11:06:34;;;;;;;1999.90;999.90;;;23.60;99.90;;;;;;5097622;28;20639;-82
2021/06/29 11:09:00;;;;;;;1999.90;999.90;;;23.80;99.90;;;;;;5098074;28;20381;-82
2021/06/29 11:11:31;;;;;;;1999.90;999.90;;;24.10;99.90;;;;;;5097608;28;20176;-82
2021/06/29 11:13:57;;;;;;;1999.90;999.90;;;24.30;99.90;;;;;;5079752;28;20635;-82
2021/06/29 11:16:55;;;;;;;1999.90;999.90;;;24.30;99.90;;;;;;5097151;28;20176;-81
2021/06/29 11:19:21;;;;;;;1999.90;999.90;;;24.40;99.90;;;;;;5097390;28;20192;-82
2021/06/29 11:21:47;;;;;;;1999.90;999.90;;;24.50;99.90;;;;;;5097471;28;20195;-82
2021/06/29 11:24:36;;;;;;;1999.90;999.90;;;24.60;99.90;;;;;;5097403;28;20226;-82
2021/06/29 11:27:02;;;;;;;1999.90;999.90;;;24.60;99.90;;;;;;5097330;28;20277;-82
2021/06/29 11:29:39;;;;;;;1999.90;999.90;;;24.50;99.90;;;;;;5097975;28;20199;-82
2021/06/29 11:32:24;;;;;;;1999.90;999.90;;;24.40;99.90;;;;;;5097465;28;20670;-81
2021/06/29 11:34:50;;;;;;;1999.90;999.90;;;24.30;99.90;;;;;;5079534;28;20180;-82
2021/06/29 11:37:16;;;;;;;1999.90;999.90;;;24.20;99.90;;;;;;5079443;28;20173;-81
2021/06/29 11:39:41;;;;;;;1999.90;999.90;;;24.20;99.90;;;;;;5097332;28;20663;-81
2021/06/29 11:42:20;;;;;;;1999.90;999.90;;;24.10;99.90;;;;;;5078672;28;20211;-81
2021/06/29 11:44:51;;;;;;;1999.90;999.90;;;23.90;99.90;;;;;;5079248;28;20226;-81
2021/06/29 11:47:20;;;;;;;1999.90;999.90;;;23.90;99.90;;;;;;5096640;28;20172;-81
2021/06/29 11:50:00;;;;;;;1999.90;999.90;;;23.60;99.90;;;;;;5096930;28;20211;-81
2021/06/29 11:52:34;;;;;;;1999.90;999.90;;;23.60;99.90;;;;;;5096589;28;20236;-81
2021/06/29 11:55:19;;;;;;;1999.90;999.90;;;23.40;99.90;;;;;;5079189;28;20211;-82
2021/06/29 11:57:50;;;;;;;1999.90;999.90;;;22.70;99.90;;;;;;5079145;28;20171;-81
2021/06/29 12:00:19;;;;;;;1999.90;999.90;;;21.90;99.90;;;;;;5097073;28;20196;-80
2021/06/29 12:02:47;;;;;;;1999.90;999.90;;;20.90;99.90;;;;;;5096342;28;20172;-81